Time;durP1;ratioP1;P1;durP2;ratioP2;P2;SDS_P1;SDS_P2;PMS_P1;PMS_P2;Temp;Humidity;BMP_temperature;BMP_pressure;BME280_temperature;BME280_humidity;BME280_pressure;Samples;Min_cycle;Max_cycle;Signal;HPM_P1;HPM_P2
2024/02/11 00:01:14;;;;;;;20.90;6.15;;;9.80;99.90;;;;;;4249758;27;20043;-61
2024/02/11 00:03:25;;;;;;;21.30;6.68;;;9.80;99.90;;;;;;4267805;27;20465;-60
2024/02/11 00:05:30;;;;;;;19.88;5.80;;;9.80;99.90;;;;;;4267993;27;20500;-61
2024/02/11 00:07:32;;;;;;;25.55;6.95;;;9.70;99.90;;;;;;4267885;27;20039;-61
2024/02/11 00:09:34;;;;;;;24.08;6.85;;;9.80;99.90;;;;;;4268272;27;20050;-60
2024/02/11 00:11:36;;;;;;;20.08;6.22;;;9.80;99.90;;;;;;4267813;27;20043;-61
2024/02/11 00:13:40;;;;;;;23.20;7.00;;;9.80;99.90;;;;;;4268331;27;20525;-61
2024/02/11 00:15:43;;;;;;;18.23;6.13;;;9.80;99.90;;;;;;4268792;27;20279;-62
2024/02/11 00:17:46;;;;;;;24.27;5.93;;;9.80;99.90;;;;;;4268982;27;20503;-61
2024/02/11 00:19:49;;;;;;;20.65;7.25;;;9.90;99.90;;;;;;4268364;27;20070;-61
2024/02/11 00:21:52;;;;;;;24.42;6.38;;;9.90;99.90;;;;;;4268371;27;20072;-61
2024/02/11 00:23:54;;;;;;;25.70;7.03;;;9.90;99.90;;;;;;4267115;27;20087;-61
2024/02/11 00:25:56;;;;;;;26.23;6.53;;;9.90;99.90;;;;;;4267235;27;20043;-61
2024/02/11 00:27:59;;;;;;;30.25;6.63;;;9.90;99.90;;;;;;4267826;27;20042;-62
2024/02/11 00:30:01;;;;;;;21.02;6.82;;;9.80;99.90;;;;;;4267448;27;20478;-61
2024/02/11 00:32:04;;;;;;;18.20;5.80;;;9.90;99.90;;;;;;4267643;27;20091;-61
2024/02/11 00:34:06;;;;;;;25.60;6.55;;;9.80;99.90;;;;;;4267880;27;20103;-60
2024/02/11 00:36:08;;;;;;;24.60;6.70;;;9.80;99.90;;;;;;4267690;27;20398;-60
2024/02/11 00:38:14;;;;;;;21.48;5.57;;;9.80;99.90;;;;;;4268247;27;20047;-61
2024/02/11 00:40:16;;;;;;;26.25;6.13;;;9.70;99.90;;;;;;4268357;27;20043;-67
2024/02/11 00:42:19;;;;;;;24.60;6.70;;;9.70;99.90;;;;;;4267876;27;20445;-60
2024/02/11 00:44:22;;;;;;;28.92;6.53;;;9.70;99.90;;;;;;4267530;27;20402;-61
2024/02/11 00:46:24;;;;;;;29.35;6.78;;;9.70;99.90;;;;;;4267396;27;20451;-60
2024/02/11 00:48:26;;;;;;;25.85;6.43;;;9.70;99.90;;;;;;4267355;27;20062;-61
2024/02/11 00:50:31;;;;;;;22.27;6.45;;;9.70;99.90;;;;;;4267202;27;20054;-59
2024/02/11 00:52:33;;;;;;;24.95;7.13;;;9.70;99.90;;;;;;4267195;27;20062;-61
2024/02/11 00:54:37;;;;;;;22.05;6.13;;;9.80;99.90;;;;;;4266423;27;20047;-60
2024/02/11 00:56:40;;;;;;;25.27;5.50;;;9.80;99.90;;;;;;4267302;27;20051;-60
2024/02/11 00:58:42;;;;;;;26.27;6.55;;;9.80;99.90;;;;;;4266944;27;20134;-60
2024/02/11 01:00:45;;;;;;;26.05;6.45;;;9.80;99.90;;;;;;4266501;27;20046;-60
2024/02/11 01:02:47;;;;;;;22.48;6.10;;;9.80;99.90;;;;;;4267181;27;20047;-60
2024/02/11 01:04:49;;;;;;;24.65;6.53;;;9.90;99.90;;;;;;4266877;27;20048;-60
2024/02/11 01:06:51;;;;;;;23.20;6.32;;;9.80;99.90;;;;;;4266959;27;20066;-59
2024/02/11 01:08:53;;;;;;;21.83;6.45;;;9.90;99.90;;;;;;4266793;27;20125;-60
2024/02/11 01:10:57;;;;;;;24.75;6.88;;;9.90;99.90;;;;;;4266946;27;20054;-60
2024/02/11 01:12:59;;;;;;;25.88;6.72;;;9.80;99.90;;;;;;4266766;27;20070;-60
2024/02/11 01:15:01;;;;;;;27.38;6.90;;;9.80;99.90;;;;;;4266703;27;20062;-61
2024/02/11 01:17:03;;;;;;;29.35;6.30;;;9.80;99.90;;;;;;4266742;27;20046;-61
2024/02/11 01:19:05;;;;;;;31.00;6.18;;;9.90;99.90;;;;;;4266722;27;20083;-60
2024/02/11 01:21:09;;;;;;;19.73;6.03;;;9.90;99.90;;;;;;4266575;27;20172;-60
2024/02/11 01:23:11;;;;;;;23.90;5.88;;;10.00;99.90;;;;;;4266505;27;20401;-61
2024/02/11 01:25:20;;;;;;;20.73;5.50;;;10.00;99.90;;;;;;4266768;27;20042;-60
2024/02/11 01:27:24;;;;;;;23.55;6.28;;;10.00;99.90;;;;;;4266434;27;20046;-61
2024/02/11 01:29:26;;;;;;;25.35;6.40;;;9.90;99.90;;;;;;4266747;27;20405;-61
2024/02/11 01:31:28;;;;;;;29.05;5.70;;;10.00;99.90;;;;;;4266659;27;20051;-61
2024/02/11 01:33:30;;;;;;;28.08;5.78;;;10.00;99.90;;;;;;4248505;27;20043;-61
2024/02/11 01:35:32;;;;;;;18.95;5.68;;;10.00;99.90;;;;;;4266406;27;20043;-60
2024/02/11 01:37:40;;;;;;;21.05;6.13;;;10.00;99.90;;;;;;4266134;27;20051;-61
2024/02/11 01:39:42;;;;;;;25.70;5.88;;;10.00;99.90;;;;;;4266344;27;20137;-61
2024/02/11 01:41:44;;;;;;;25.63;5.90;;;10.10;99.90;;;;;;4266548;27;20047;-61
2024/02/11 01:43:47;;;;;;;23.40;5.78;;;10.00;99.90;;;;;;4266306;27;20050;-61
2024/02/11 01:45:49;;;;;;;32.50;5.65;;;10.00;99.90;;;;;;4266389;27;20501;-60
2024/02/11 01:47:53;;;;;;;21.73;6.05;;;10.00;99.90;;;;;;4266096;27;20421;-61
2024/02/11 01:49:55;;;;;;;24.67;5.97;;;10.00;99.90;;;;;;4266123;27;20092;-61
2024/02/11 01:51:59;;;;;;;26.98;6.00;;;10.00;99.90;;;;;;4247093;27;20046;-60
2024/02/11 01:54:03;;;;;;;25.85;5.88;;;10.00;99.90;;;;;;4265834;27;20502;-61
2024/02/11 01:56:06;;;;;;;26.08;6.32;;;10.10;99.90;;;;;;4266238;27;20046;-60
2024/02/11 01:58:09;;;;;;;30.33;5.55;;;10.00;99.90;;;;;;4266257;27;20058;-60
2024/02/11 02:00:13;;;;;;;25.83;6.88;;;10.00;99.90;;;;;;4266052;27;20095;-61
2024/02/11 02:02:17;;;;;;;21.23;5.40;;;9.90;99.90;;;;;;4266155;27;20577;-60
2024/02/11 02:04:20;;;;;;;16.92;4.95;;;10.00;99.90;;;;;;4266093;27;20058;-60
2024/02/11 02:06:22;;;;;;;22.77;6.05;;;10.00;99.90;;;;;;4265825;27;20513;-61
2024/02/11 02:08:26;;;;;;;21.27;5.80;;;9.90;99.90;;;;;;4265907;27;20121;-61
2024/02/11 02:10:28;;;;;;;25.85;5.68;;;10.00;99.90;;;;;;4266006;27;20070;-61
2024/02/11 02:12:31;;;;;;;19.25;5.32;;;9.90;99.90;;;;;;4264793;27;20045;-61
2024/02/11 02:14:33;;;;;;;23.33;5.80;;;9.90;99.90;;;;;;4265659;27;20095;-60
2024/02/11 02:16:36;;;;;;;23.48;6.03;;;10.00;99.90;;;;;;4265780;27;20047;-60
2024/02/11 02:18:38;;;;;;;22.17;5.63;;;10.00;99.90;;;;;;4265866;27;20405;-61
2024/02/11 02:20:41;;;;;;;18.50;5.53;;;10.00;99.90;;;;;;4247514;27;20122;-61
2024/02/11 02:22:47;;;;;;;18.27;5.18;;;10.00;99.90;;;;;;4247230;27;20070;-61
2024/02/11 02:24:50;;;;;;;21.60;5.00;;;10.10;99.90;;;;;;4265933;27;20103;-61
2024/02/11 02:26:52;;;;;;;30.25;5.72;;;10.10;99.90;;;;;;4265847;27;20074;-60
2024/02/11 02:28:54;;;;;;;22.80;5.32;;;10.10;99.90;;;;;;4265536;27;20413;-61
2024/02/11 02:30:57;;;;;;;23.30;5.35;;;10.10;99.90;;;;;;4265431;27;20413;-61
2024/02/11 02:32:59;;;;;;;17.85;5.40;;;10.10;99.90;;;;;;4265727;27;20069;-61
2024/02/11 02:35:02;;;;;;;26.08;5.47;;;10.10;99.90;;;;;;4265455;27;20043;-61
2024/02/11 02:37:06;;;;;;;29.75;5.57;;;10.10;99.90;;;;;;4265229;27;20500;-61
2024/02/11 02:39:13;;;;;;;22.70;5.28;;;10.00;99.90;;;;;;4265767;27;20088;-60
2024/02/11 02:41:15;;;;;;;18.27;4.57;;;10.00;99.90;;;;;;4265559;27;20038;-60
2024/02/11 02:43:17;;;;;;;21.35;5.53;;;10.00;99.90;;;;;;4265654;27;20406;-60
2024/02/11 02:45:19;;;;;;;25.15;5.32;;;10.00;99.90;;;;;;4265649;27;20154;-60
2024/02/11 02:47:21;;;;;;;18.85;5.55;;;10.00;99.90;;;;;;4265615;27;20454;-61
2024/02/11 02:49:24;;;;;;;24.33;5.75;;;10.00;99.90;;;;;;4265588;27;20046;-61
2024/02/11 02:51:25;;;;;;;25.33;5.43;;;9.90;99.90;;;;;;4265016;27;20042;-61
2024/02/11 02:53:28;;;;;;;27.77;4.72;;;9.90;99.90;;;;;;4265513;27;20046;-61
2024/02/11 02:55:31;;;;;;;20.65;4.85;;;9.90;99.90;;;;;;4265046;27;20049;-60
2024/02/11 02:57:36;;;;;;;24.15;6.00;;;9.90;99.90;;;;;;4265402;27;20046;-61
2024/02/11 02:59:38;;;;;;;;;;;10.00;99.90;;;;;;4265897;27;20126;-61
2024/02/11 03:01:41;;;;;;;23.48;5.38;;;9.90;99.90;;;;;;4265189;27;19992;-60
2024/02/11 03:03:46;;;;;;;18.67;5.10;;;9.90;99.90;;;;;;4265301;27;20046;-60
2024/02/11 03:05:50;;;;;;;24.48;5.18;;;9.90;99.90;;;;;;4264656;27;20049;-60
2024/02/11 03:07:53;;;;;;;24.50;4.88;;;10.00;99.90;;;;;;4265010;27;20095;-61
2024/02/11 03:09:55;;;;;;;28.13;5.68;;;10.00;99.90;;;;;;4265117;27;20038;-60
2024/02/11 03:11:59;;;;;;;21.13;4.57;;;10.00;99.90;;;;;;4265174;27;20049;-61
2024/02/11 03:14:01;;;;;;;22.42;5.38;;;10.10;99.90;;;;;;4265102;27;20074;-61
2024/02/11 03:16:04;;;;;;;30.30;5.47;;;10.00;99.90;;;;;;4265364;27;20038;-60
2024/02/11 03:18:06;;;;;;;22.58;4.72;;;10.10;99.90;;;;;;4265087;27;20053;-62
2024/02/11 03:20:11;;;;;;;24.63;5.75;;;10.20;99.90;;;;;;4246675;28;20051;-59
2024/02/11 03:22:14;;;;;;;23.10;5.70;;;10.30;99.90;;;;;;4265169;27;20054;-61
2024/02/11 03:24:16;;;;;;;24.23;5.88;;;10.20;99.90;;;;;;4267882;27;20039;-60
2024/02/11 03:26:18;;;;;;;27.75;5.63;;;10.20;99.90;;;;;;4268564;27;20510;-60
2024/02/11 03:28:21;;;;;;;18.63;4.82;;;10.30;99.90;;;;;;4268535;27;20076;-60
2024/02/11 03:30:23;;;;;;;19.38;4.45;;;10.20;99.90;;;;;;4268415;27;20045;-60
2024/02/11 03:32:26;;;;;;;20.55;4.72;;;10.20;99.90;;;;;;4268351;27;20043;-60
2024/02/11 03:34:28;;;;;;;22.77;5.22;;;10.20;99.90;;;;;;4267910;27;20066;-61
2024/02/11 03:36:31;;;;;;;19.92;4.35;;;10.10;99.90;;;;;;4268239;27;20488;-61
2024/02/11 03:38:33;;;;;;;22.55;4.68;;;10.20;99.90;;;;;;4268222;27;20165;-60
2024/02/11 03:40:35;;;;;;;22.65;4.63;;;10.20;99.90;;;;;;4268493;27;20063;-61
2024/02/11 03:42:38;;;;;;;21.95;5.20;;;10.20;99.90;;;;;;4250045;27;20079;-61
2024/02/11 03:44:41;;;;;;;23.70;4.63;;;10.10;99.90;;;;;;4268405;27;20504;-61
2024/02/11 03:46:43;;;;;;;21.63;5.60;;;10.20;99.90;;;;;;4268501;27;20158;-61
2024/02/11 03:48:45;;;;;;;21.42;5.10;;;10.20;99.90;;;;;;4267885;27;20055;-61
2024/02/11 03:50:48;;;;;;;20.08;4.30;;;10.20;99.90;;;;;;4268102;27;20047;-61
2024/02/11 03:52:50;;;;;;;35.20;5.90;;;10.20;99.90;;;;;;4268465;27;20103;-61
2024/02/11 03:54:52;;;;;;;19.75;5.03;;;10.20;99.90;;;;;;4268110;27;20047;-60
2024/02/11 03:56:54;;;;;;;36.28;6.53;;;10.20;99.90;;;;;;4267894;27;20050;-61
2024/02/11 03:58:56;;;;;;;21.23;5.57;;;10.20;99.90;;;;;;4268309;27;20066;-61
2024/02/11 04:01:00;;;;;;;21.02;4.22;;;10.30;99.90;;;;;;4268104;27;20107;-61
2024/02/11 04:03:02;;;;;;;26.05;4.75;;;10.20;99.90;;;;;;4267618;27;20067;-61
2024/02/11 04:05:05;;;;;;;22.85;4.68;;;10.30;99.90;;;;;;4268255;27;20065;-61
2024/02/11 04:07:10;;;;;;;23.15;5.60;;;10.20;99.90;;;;;;4249860;27;20522;-60
2024/02/11 04:09:14;;;;;;;21.60;4.75;;;10.20;99.90;;;;;;4267825;27;20043;-61
2024/02/11 04:11:17;;;;;;;24.13;4.90;;;10.30;99.90;;;;;;4268068;27;20042;-61
2024/02/11 04:13:24;;;;;;;25.23;5.32;;;10.30;99.90;;;;;;4267658;27;21321;-61
2024/02/11 04:15:27;;;;;;;26.02;4.72;;;10.30;99.90;;;;;;4267734;27;20077;-61
2024/02/11 04:17:36;;;;;;;24.48;5.57;;;10.20;99.90;;;;;;4267346;27;20509;-61
2024/02/11 04:19:38;;;;;;;23.20;4.30;;;10.20;99.90;;;;;;4267727;27;20049;-59
2024/02/11 04:21:40;;;;;;;27.08;5.15;;;10.30;99.90;;;;;;4267780;27;20095;-59
2024/02/11 04:23:46;;;;;;;25.45;4.97;;;10.30;99.90;;;;;;4267787;27;20101;-59
2024/02/11 04:25:50;;;;;;;24.55;5.80;;;10.30;99.90;;;;;;4268106;27;20117;-60
2024/02/11 04:27:52;;;;;;;17.35;3.92;;;10.40;99.90;;;;;;4267974;27;20152;-58
2024/02/11 04:29:54;;;;;;;34.88;5.30;;;10.30;99.90;;;;;;4267841;27;20422;-58
2024/02/11 04:31:57;;;;;;;22.50;4.53;;;10.30;99.90;;;;;;4267294;27;20043;-60
2024/02/11 04:34:00;;;;;;;27.33;4.95;;;10.40;99.90;;;;;;4267589;27;20075;-61
2024/02/11 04:36:04;;;;;;;23.00;5.40;;;10.30;99.90;;;;;;4266227;27;20046;-60
2024/02/11 04:38:12;;;;;;;22.08;4.85;;;10.30;99.90;;;;;;4267491;27;20979;-60
2024/02/11 04:40:16;;;;;;;27.50;4.88;;;10.30;99.90;;;;;;4267456;27;20053;-60
2024/02/11 04:42:18;;;;;;;27.25;5.38;;;10.30;99.90;;;;;;4267135;27;20072;-61
2024/02/11 04:44:23;;;;;;;26.20;5.35;;;10.30;99.90;;;;;;4267333;27;20447;-61
2024/02/11 04:46:26;;;;;;;21.85;4.38;;;10.20;99.90;;;;;;4266661;27;20047;-61
2024/02/11 04:48:28;;;;;;;26.77;4.55;;;10.30;99.90;;;;;;4267262;27;20073;-61
2024/02/11 04:50:34;;;;;;;25.15;4.32;;;10.30;99.90;;;;;;4267226;27;20468;-60
2024/02/11 04:52:38;;;;;;;21.70;5.13;;;10.30;99.90;;;;;;4267196;27;20405;-61
2024/02/11 04:54:42;;;;;;;23.50;4.90;;;10.30;99.90;;;;;;4266977;27;20126;-61
2024/02/11 04:56:46;;;;;;;20.08;4.40;;;10.30;99.90;;;;;;4267167;27;20493;-60
2024/02/11 04:58:48;;;;;;;20.73;4.35;;;10.30;99.90;;;;;;4267037;27;20409;-61
2024/02/11 05:00:50;;;;;;;22.33;4.07;;;10.30;99.90;;;;;;4266885;27;20042;-60
2024/02/11 05:02:55;;;;;;;25.20;4.93;;;10.30;99.90;;;;;;4267058;27;20081;-60
2024/02/11 05:04:59;;;;;;;24.58;5.07;;;10.30;99.90;;;;;;4266937;27;20042;-61
2024/02/11 05:07:03;;;;;;;23.58;4.70;;;10.30;99.90;;;;;;4266969;27;20047;-61
2024/02/11 05:09:07;;;;;;;17.80;3.92;;;10.40;99.90;;;;;;4266956;27;20117;-61
2024/02/11 05:11:10;;;;;;;21.70;4.25;;;10.40;99.90;;;;;;4267064;27;20049;-61
2024/02/11 05:13:14;;;;;;;23.83;4.40;;;10.30;99.90;;;;;;4267022;27;20050;-61
2024/02/11 05:15:20;;;;;;;28.48;4.43;;;10.30;99.90;;;;;;4266824;27;20440;-61
2024/02/11 05:17:22;;;;;;;21.60;4.38;;;10.30;99.90;;;;;;4267063;27;20050;-61
2024/02/11 05:19:25;;;;;;;29.20;5.15;;;10.30;99.90;;;;;;4266808;27;20118;-61
2024/02/11 05:21:27;;;;;;;22.02;4.65;;;10.30;99.90;;;;;;4266893;27;20405;-61
2024/02/11 05:23:30;;;;;;;23.30;4.07;;;10.30;99.90;;;;;;4266962;27;20051;-60
2024/02/11 05:25:33;;;;;;;23.63;4.68;;;10.30;99.90;;;;;;4266701;27;20043;-61
2024/02/11 05:27:37;;;;;;;28.02;4.90;;;10.20;99.90;;;;;;4266840;27;20386;-61
2024/02/11 05:29:39;;;;;;;30.23;5.37;;;10.30;99.90;;;;;;4266440;27;20138;-61
2024/02/11 05:31:42;;;;;;;28.70;5.25;;;10.30;99.90;;;;;;4266472;27;20052;-61
2024/02/11 05:33:44;;;;;;;24.50;4.95;;;10.20;99.90;;;;;;4266812;27;20067;-60
2024/02/11 05:35:46;;;;;;;22.30;4.10;;;10.30;99.90;;;;;;4266382;27;20042;-60
2024/02/11 05:37:57;;;;;;;18.98;4.10;;;10.20;99.90;;;;;;4266488;27;20057;-61
2024/02/11 05:40:01;;;;;;;21.75;5.15;;;10.20;99.90;;;;;;4266460;27;20536;-61
2024/02/11 05:42:11;;;;;;;24.45;4.63;;;10.20;99.90;;;;;;4266399;27;20053;-61
2024/02/11 05:44:13;;;;;;;17.75;4.07;;;10.20;99.90;;;;;;4266006;27;20123;-60
2024/02/11 05:46:15;;;;;;;26.98;4.88;;;10.20;99.90;;;;;;4265954;27;20043;-60
2024/02/11 05:48:17;;;;;;;24.60;5.20;;;10.10;99.90;;;;;;4266340;27;20438;-60
2024/02/11 05:50:22;;;;;;;25.35;5.60;;;10.20;99.90;;;;;;4266297;27;20050;-63
2024/02/11 05:52:24;;;;;;;25.02;5.78;;;10.20;99.90;;;;;;4266302;27;20429;-60
2024/02/11 05:54:28;;;;;;;24.48;4.70;;;10.30;99.90;;;;;;4266089;27;20519;-60
2024/02/11 05:56:31;;;;;;;22.48;5.07;;;10.30;99.90;;;;;;4266223;27;20413;-60
2024/02/11 05:58:33;;;;;;;25.58;4.82;;;10.30;99.90;;;;;;4266033;27;20039;-61
2024/02/11 06:00:42;;;;;;;26.52;4.90;;;10.30;99.90;;;;;;4266097;27;20046;-61
2024/02/11 06:02:47;;;;;;;21.58;4.55;;;10.30;99.90;;;;;;4266230;27;20042;-61
2024/02/11 06:04:49;;;;;;;25.42;5.28;;;10.30;99.90;;;;;;4266378;27;20042;-61
2024/02/11 06:06:51;;;;;;;22.38;5.18;;;10.30;99.90;;;;;;4266196;27;20043;-61
2024/02/11 06:08:54;;;;;;;22.60;4.55;;;10.30;99.90;;;;;;4266156;27;20133;-61
2024/02/11 06:10:57;;;;;;;29.60;4.82;;;10.20;99.90;;;;;;4265823;27;20088;-61
2024/02/11 06:13:05;;;;;;;22.80;4.97;;;10.20;99.90;;;;;;4265660;27;20550;-62
2024/02/11 06:15:10;;;;;;;25.98;4.50;;;10.30;99.90;;;;;;4265731;27;20047;-60
2024/02/11 06:17:12;;;;;;;18.85;3.55;;;10.30;99.90;;;;;;4266127;27;20118;-62
2024/02/11 06:19:14;;;;;;;21.88;4.57;;;10.30;99.90;;;;;;4265820;27;20084;-60
2024/02/11 06:21:17;;;;;;;23.08;4.90;;;10.30;99.90;;;;;;4265801;27;20496;-61
2024/02/11 06:23:20;;;;;;;24.83;5.35;;;10.20;99.90;;;;;;4265689;27;20409;-60
2024/02/11 06:25:23;;;;;;;18.20;4.40;;;10.20;99.90;;;;;;4265872;27;20113;-61
2024/02/11 06:27:25;;;;;;;17.42;3.88;;;10.10;99.90;;;;;;4265525;27;20062;-61
2024/02/11 06:29:29;;;;;;;19.40;4.32;;;10.10;99.90;;;;;;4265870;27;20133;-61
2024/02/11 06:31:31;;;;;;;19.73;3.83;;;10.10;99.90;;;;;;4265846;27;20047;-61
2024/02/11 06:33:34;;;;;;;19.02;4.50;;;10.10;99.90;;;;;;4265935;27;20043;-61
2024/02/11 06:35:36;;;;;;;21.45;4.03;;;10.10;99.90;;;;;;4265866;27;20481;-61
2024/02/11 06:37:40;;;;;;;16.10;3.90;;;10.20;99.90;;;;;;4247525;27;20490;-60
2024/02/11 06:39:44;;;;;;;20.67;3.33;;;10.10;99.90;;;;;;4265800;27;20070;-61
2024/02/11 06:41:47;;;;;;;17.88;3.85;;;10.10;99.90;;;;;;4265726;27;20504;-61
2024/02/11 06:43:50;;;;;;;19.55;3.45;;;10.00;99.90;;;;;;4246796;27;20497;-61
2024/02/11 06:45:53;;;;;;;17.45;3.90;;;10.10;99.90;;;;;;4265714;27;20051;-58
2024/02/11 06:47:55;;;;;;;20.63;3.95;;;10.10;99.90;;;;;;4265482;27;20070;-58
2024/02/11 06:49:58;;;;;;;21.88;4.35;;;10.10;99.90;;;;;;4265456;27;20043;-59
2024/02/11 06:52:00;;;;;;;16.00;4.20;;;10.10;99.90;;;;;;4266174;27;20103;-59
2024/02/11 06:54:03;;;;;;;18.63;3.75;;;10.20;99.90;;;;;;4265552;27;20046;-58
2024/02/11 06:56:07;;;;;;;27.40;5.22;;;10.20;99.90;;;;;;4265996;27;20043;-58
2024/02/11 06:58:09;;;;;;;21.80;3.97;;;10.20;99.90;;;;;;4264526;27;20139;-59
2024/02/11 07:00:14;;;;;;;15.63;3.50;;;10.10;99.90;;;;;;4265486;27;20069;-58
2024/02/11 07:02:20;;;;;;;19.70;4.22;;;10.20;99.90;;;;;;4247299;27;20488;-58
2024/02/11 07:04:23;;;;;;;18.75;4.43;;;10.10;99.90;;;;;;4265547;27;20126;-58
2024/02/11 07:06:25;;;;;;;17.85;3.85;;;10.10;99.90;;;;;;4265570;27;20039;-58
2024/02/11 07:08:27;;;;;;;18.00;4.32;;;10.00;99.90;;;;;;4265339;27;20096;-58
2024/02/11 07:10:30;;;;;;;19.17;4.38;;;10.10;99.90;;;;;;4265393;27;20487;-58
2024/02/11 07:12:32;;;;;;;23.48;3.97;;;10.10;99.90;;;;;;4265145;27;20043;-59
2024/02/11 07:14:34;;;;;;;22.33;3.92;;;10.10;99.90;;;;;;4265634;27;20398;-58
2024/02/11 07:16:39;;;;;;;23.08;5.18;;;10.10;99.90;;;;;;4265564;27;20046;-58
2024/02/11 07:18:43;;;;;;;;;;;10.20;99.90;;;;;;4265756;27;20042;-59
2024/02/11 07:20:45;;;;;;;16.70;4.00;;;10.20;99.90;;;;;;4265393;27;19923;-58
2024/02/11 07:22:47;;;;;;;22.48;4.15;;;10.00;99.90;;;;;;4265357;27;20043;-58
2024/02/11 07:24:49;;;;;;;20.33;3.60;;;10.00;99.90;;;;;;4264906;27;20532;-60
2024/02/11 07:26:51;;;;;;;17.13;4.38;;;10.00;99.90;;;;;;4264874;27;20043;-58
2024/02/11 07:28:53;;;;;;;18.75;4.05;;;10.10;99.90;;;;;;4264765;27;20059;-58
2024/02/11 07:30:56;;;;;;;20.05;4.80;;;10.10;99.90;;;;;;4265154;27;20122;-58
2024/02/11 07:32:58;;;;;;;20.67;3.38;;;10.20;99.90;;;;;;4265093;27;20053;-59
2024/02/11 07:35:02;;;;;;;13.57;3.15;;;10.10;99.90;;;;;;4265526;27;20126;-57
2024/02/11 07:37:04;;;;;;;22.85;3.58;;;10.10;99.90;;;;;;4265454;27;20133;-58
2024/02/11 07:39:06;;;;;;;17.10;3.58;;;10.10;99.90;;;;;;4265400;27;20073;-59
2024/02/11 07:41:09;;;;;;;14.20;4.22;;;10.10;99.90;;;;;;4265352;27;20057;-60
2024/02/11 07:43:12;;;;;;;20.98;4.65;;;10.10;99.90;;;;;;4265850;27;20062;-59
2024/02/11 07:45:14;;;;;;;20.02;4.57;;;10.20;99.90;;;;;;4266175;27;20397;-63
2024/02/11 07:47:18;;;;;;;23.27;4.38;;;10.20;99.90;;;;;;4265975;27;20061;-59
2024/02/11 07:49:20;;;;;;;18.67;4.43;;;10.20;99.90;;;;;;4265468;27;20051;-58
2024/02/11 07:51:24;;;;;;;14.13;4.15;;;10.30;99.90;;;;;;4265347;27;20039;-58
2024/02/11 07:53:29;;;;;;;10.77;3.17;;;10.30;99.90;;;;;;4265124;27;20046;-60
2024/02/11 07:55:31;;;;;;;17.27;4.55;;;10.30;99.90;;;;;;4264525;27;20063;-58
2024/02/11 07:57:33;;;;;;;17.10;3.38;;;10.30;99.90;;;;;;4265360;27;20050;-58
2024/02/11 07:59:38;;;;;;;15.65;4.15;;;10.40;99.90;;;;;;4265298;27;20047;-59
2024/02/11 08:01:40;;;;;;;16.10;3.42;;;10.40;99.90;;;;;;4265403;27;20049;-59
2024/02/11 08:03:42;;;;;;;22.00;4.13;;;10.40;99.90;;;;;;4265094;27;20042;-58
2024/02/11 08:05:44;;;;;;;18.35;3.75;;;10.30;99.90;;;;;;4265617;27;20466;-58
2024/02/11 08:07:48;;;;;;;18.92;4.40;;;10.40;99.90;;;;;;4265368;27;20043;-58
2024/02/11 08:09:50;;;;;;;16.98;4.07;;;10.50;99.90;;;;;;4264827;27;20123;-58
2024/02/11 08:11:53;;;;;;;15.18;3.47;;;10.50;99.90;;;;;;4268127;27;20042;-59
2024/02/11 08:13:55;;;;;;;17.70;3.38;;;10.50;99.90;;;;;;4268256;27;20042;-59
2024/02/11 08:15:57;;;;;;;14.85;3.17;;;10.50;99.90;;;;;;4268231;27;20451;-58
2024/02/11 08:18:04;;;;;;;20.70;3.38;;;10.50;99.90;;;;;;4268140;27;20069;-58
2024/02/11 08:20:07;;;;;;;21.33;4.43;;;10.50;99.90;;;;;;4267951;27;20053;-58
2024/02/11 08:22:11;;;;;;;14.80;3.85;;;10.60;99.90;;;;;;4267943;27;20050;-58
2024/02/11 08:24:16;;;;;;;17.98;3.50;;;10.70;99.90;;;;;;4267615;27;20046;-58
2024/02/11 08:26:20;;;;;;;18.08;3.63;;;10.80;99.90;;;;;;4267826;27;20111;-58
2024/02/11 08:28:22;;;;;;;17.85;3.78;;;10.80;99.90;;;;;;4267978;27;20049;-58
2024/02/11 08:30:24;;;;;;;14.60;3.38;;;10.80;99.90;;;;;;4267888;27;20472;-59
2024/02/11 08:32:28;;;;;;;15.38;3.78;;;10.80;99.90;;;;;;4267414;27;20049;-59
2024/02/11 08:34:31;;;;;;;21.08;3.80;;;10.80;99.90;;;;;;4267742;27;20049;-58
2024/02/11 08:36:33;;;;;;;13.32;3.25;;;10.80;99.90;;;;;;4267429;27;20046;-58
2024/02/11 08:38:35;;;;;;;14.10;3.47;;;10.90;99.90;;;;;;4267089;27;20497;-58
2024/02/11 08:40:38;;;;;;;13.65;2.92;;;11.00;99.90;;;;;;4267420;27;20117;-58
2024/02/11 08:42:41;;;;;;;12.13;3.50;;;11.10;99.90;;;;;;4267575;27;20050;-57
2024/02/11 08:44:43;;;;;;;10.77;2.70;;;11.20;99.90;;;;;;4267631;27;20386;-58
2024/02/11 08:46:45;;;;;;;16.17;3.83;;;11.10;99.90;;;;;;4267394;27;20054;-59
2024/02/11 08:48:49;;;;;;;16.27;3.40;;;11.10;99.90;;;;;;4267394;27;20043;-58
2024/02/11 08:50:51;;;;;;;13.48;3.28;;;11.10;99.90;;;;;;4267647;27;20053;-59
2024/02/11 08:52:56;;;;;;;17.95;3.75;;;11.10;99.90;;;;;;4266989;27;20077;-58
2024/02/11 08:54:59;;;;;;;14.35;3.30;;;11.10;99.90;;;;;;4267185;27;20051;-58
2024/02/11 08:57:02;;;;;;;14.45;2.85;;;11.10;99.90;;;;;;4267116;27;20046;-57
2024/02/11 08:59:06;;;;;;;12.30;3.03;;;11.00;99.90;;;;;;4267234;27;20047;-58
2024/02/11 09:01:08;;;;;;;13.32;3.20;;;11.00;99.90;;;;;;4267061;27;20065;-57
2024/02/11 09:03:11;;;;;;;14.65;3.78;;;11.00;99.90;;;;;;4267597;27;20288;-58
2024/02/11 09:05:13;;;;;;;14.65;3.40;;;11.10;99.90;;;;;;4267600;27;20042;-58
2024/02/11 09:07:15;;;;;;;16.90;3.90;;;11.10;99.90;;;;;;4267122;27;20050;-57
2024/02/11 09:09:25;;;;;;;13.95;3.38;;;11.20;99.90;;;;;;4268283;27;20047;-58
2024/02/11 09:11:28;;;;;;;13.63;3.60;;;11.20;99.90;;;;;;4269490;27;20125;-60
2024/02/11 09:13:34;;;;;;;13.32;3.30;;;11.30;99.90;;;;;;4267949;27;20095;-59
2024/02/11 09:15:41;;;;;;;16.13;3.90;;;11.40;99.90;;;;;;4267670;27;20469;-59
2024/02/11 09:17:43;;;;;;;15.02;3.30;;;11.40;99.90;;;;;;4267721;27;20070;-58
2024/02/11 09:19:46;;;;;;;13.65;3.38;;;11.40;99.90;;;;;;4267274;27;20050;-59
2024/02/11 09:21:48;;;;;;;13.35;3.80;;;11.50;99.90;;;;;;4266133;27;20039;-60
2024/02/11 09:23:51;;;;;;;15.45;2.92;;;11.40;99.90;;;;;;4266682;27;20450;-58
2024/02/11 09:25:52;;;;;;;13.20;2.97;;;11.30;99.90;;;;;;4266807;27;20130;-59
2024/02/11 09:27:55;;;;;;;13.40;3.10;;;11.30;99.90;;;;;;4266913;27;20568;-58
2024/02/11 09:29:58;;;;;;;12.27;3.40;;;11.40;99.90;;;;;;4266845;27;20043;-59
2024/02/11 09:32:02;;;;;;;14.35;3.25;;;11.30;99.90;;;;;;4267020;27;20049;-59
2024/02/11 09:34:05;;;;;;;19.48;4.38;;;11.30;99.90;;;;;;4266774;27;20054;-58
2024/02/11 09:36:08;;;;;;;12.90;3.55;;;11.20;99.90;;;;;;4266084;27;20042;-59
2024/02/11 09:38:11;;;;;;;11.98;2.95;;;11.20;99.90;;;;;;4266325;27;20057;-58
2024/02/11 09:40:15;;;;;;;16.70;3.50;;;11.20;99.90;;;;;;4266574;27;20489;-58
2024/02/11 09:42:20;;;;;;;19.52;3.80;;;11.30;99.90;;;;;;4266439;27;20049;-59
2024/02/11 09:44:26;;;;;;;;;;;11.20;99.90;;;;;;4266924;27;20047;-59
2024/02/11 09:46:34;;;;;;;;;;;11.10;99.90;;;;;;4267286;27;20062;-59
2024/02/11 09:48:39;;;;;;;13.73;3.20;;;11.10;99.90;;;;;;4266514;27;19926;-59
2024/02/11 09:50:44;;;;;;;13.23;2.83;;;11.10;99.90;;;;;;4266110;27;20070;-58
2024/02/11 09:52:47;;;;;;;14.57;3.67;;;11.20;99.90;;;;;;4266478;27;20482;-58
2024/02/11 09:54:50;;;;;;;13.65;3.38;;;11.40;99.90;;;;;;4266210;27;20047;-59
2024/02/11 09:56:52;;;;;;;13.38;3.45;;;11.50;99.90;;;;;;4266298;27;20070;-58
2024/02/11 09:58:57;;;;;;;15.93;3.28;;;11.60;99.90;;;;;;4266376;27;20039;-63
2024/02/11 10:01:00;;;;;;;17.65;3.55;;;11.70;99.90;;;;;;4266319;27;20406;-58
2024/02/11 10:03:07;;;;;;;18.73;4.10;;;11.70;99.90;;;;;;4265940;27;20046;-58
2024/02/11 10:05:11;;;;;;;16.00;3.60;;;11.80;99.90;;;;;;4266070;27;20057;-59
2024/02/11 10:07:26;;;;;;;16.50;3.33;;;11.70;99.90;;;;;;4266363;27;20469;-58
2024/02/11 10:09:28;;;;;;;13.15;4.00;;;11.70;99.90;;;;;;4266266;27;20043;-59
2024/02/11 10:11:30;;;;;;;12.95;3.72;;;11.60;99.90;;;;;;4266342;27;20046;-58
2024/02/11 10:13:34;;;;;;;18.05;4.22;;;11.70;99.90;;;;;;4266484;27;20510;-58
2024/02/11 10:15:40;;;;;;;9.95;3.35;;;11.60;99.90;;;;;;4248213;27;20452;-57
2024/02/11 10:17:42;;;;;;;;;;;11.60;99.90;;;;;;4267146;27;20050;-58
2024/02/11 10:19:47;;;;;;;14.57;4.07;;;11.50;99.90;;;;;;4265902;27;20018;-59
2024/02/11 10:21:51;;;;;;;13.93;3.67;;;11.40;99.90;;;;;;4248229;27;20043;-57
2024/02/11 10:23:54;;;;;;;11.93;3.15;;;11.50;99.90;;;;;;4268025;27;20042;-67
2024/02/11 10:25:57;;;;;;;16.30;3.63;;;11.70;99.90;;;;;;4266946;27;20477;-58
2024/02/11 10:28:01;;;;;;;12.50;3.42;;;11.80;99.90;;;;;;4266600;27;20509;-61
2024/02/11 10:30:09;;;;;;;8.63;2.58;;;11.80;99.90;;;;;;4265915;27;20039;-58
2024/02/11 10:32:13;;;;;;;14.70;3.50;;;11.80;99.90;;;;;;4265690;27;20536;-58
2024/02/11 10:34:16;;;;;;;13.23;3.08;;;11.80;99.90;;;;;;4265041;27;20491;-58
2024/02/11 10:36:22;;;;;;;14.95;3.28;;;11.90;99.90;;;;;;4265691;27;20043;-59